Ah Gwah Ching, MN (56430)

11:39 AM CDT on July 29, 2016 (GMT -0500)
LEECH LAKE TV | | Change Station

Elev 1484 ft 47.09 °N, 94.58 °W | Updated 5 minutes ago

Scattered Clouds
Scattered Clouds
75.0 °F
Feels Like 77 °F
N
1.0
Wind Variable Wind from South
Gusts 7.0 mph

Today
High -- | Low -- °F
--% Chance of Precip.
Yesterday
High -- | Low -- °F
Precip. -- in
Pressure 30.11 in
Visibility 10.0 miles
Clouds Scattered Clouds 5000 ft
Heat Index 77 °F
Dew Point 62 °F
Humidity 64%
Rainfall 0.00 in
Snow Depth Not available.
5:54 AM 8:54 PM
Waning Crescent, 21% visible
METAR KXVG 291636Z AUTO 15006KT 10SM SCT050 22/13 A3011 RMK AO2
Pressure 30.11 in
Visibility 10.0 miles
Clouds Scattered Clouds 5000 ft
Heat Index 77 °F
Dew Point 62 °F
Humidity 64%
Rainfall 0.00 in
Snow Depth Not available.
5:54 AM 8:54 PM
Waning Crescent, 21% visible
METAR KXVG 291636Z AUTO 15006KT 10SM SCT050 22/13 A3011 RMK AO2

10-Day Weather Forecast

Almanac

Astronomy

Jul. 29, 2016 Rise Set
Actual Time
Civil Twilight
Nautical Twilight
Astronomical Twilight
Moon
Length of Visible Light
Length of Day
Tomorrow will be .
, % of the Moon is Illuminated

Today's Extremes

State Highs State Lows

Community

WunderPhotos

Upload Photos

1,928,367 photos uploaded!

WunderBlog® & News

Nearby

Air Quality

  Air Quality AQ Index Pollutant
Not available.

Snow Depth

Station Depth Elevation

Earthquake Activity

City Distance Mag. Time & Date
Minimum magnitude displayed is 2.5.

Coastal Water Temperatures

Place Temperature

Stations

Nearby Weather Stations

Station Location Temp. Windchill Dew Point Humidity Wind Precip. Elev Updated Type
                   

Watches & Warnings

There are currently no watches in effect.